DAL2MT OMDB-EDDF
Flight info
| Callsign | DAL2MT |
|---|---|
| Flight time | N/A |
| Altitude | 36000 |
| Route | RIDAP M557 TUMAK L602 GADSI M860 SEPTU DCT VUSEB/N0469F380 M860 NINVA UM860 ODALI UL852 NEGEM DCT MAXOV DCT IRLOX DCT BALUX/N0464F400 DCT TEKNO DCT ABETI DCT TAGAS DCT SUBEN DCT AKINI T161 DEBHI DEBHI1A |
| Aircraft | A339/H-SADE1E2E3GHIJ3J5M1P2RWXY/LB2D1 |
Departure
| Time | 2026-04-24 12:13 |
|---|---|
| Airport | Dubai International Airport (OMDB) |
Arrival
| Time | N/A |
|---|---|
| Airport | Frankfurt Main Airport (EDDF) |
| Time | Latitude | Longitude | Altitude | Speed | Heading |
|---|---|---|---|---|---|
| 2026-04-24 11:43 | 25.24278 | 55.37097 | 28 ft | 0 kts | 30° |
| 2026-04-24 12:02 | 25.24277 | 55.37097 | 28 ft | 1 kts | 30° |
| 2026-04-24 12:03 | 25.24258 | 55.37084 | 27 ft | 4 kts | 30° |
| 2026-04-24 12:03 | 25.24235 | 55.37069 | 26 ft | 4 kts | 40° |
| 2026-04-24 12:03 | 25.24223 | 55.37055 | 26 ft | 4 kts | 55° |
| 2026-04-24 12:03 | 25.24213 | 55.37021 | 27 ft | 4 kts | 112° |
| 2026-04-24 12:04 | 25.24216 | 55.37014 | 25 ft | 1 kts | 122° |
| 2026-04-24 12:07 | 25.24214 | 55.37018 | 25 ft | 3 kts | 121° |
| 2026-04-24 12:07 | 25.24187 | 55.37066 | 28 ft | 12 kts | 122° |
| 2026-04-24 12:07 | 25.24135 | 55.37161 | 28 ft | 17 kts | 121° |
| 2026-04-24 12:08 | 25.24068 | 55.37285 | 28 ft | 21 kts | 121° |
| 2026-04-24 12:08 | 25.23988 | 55.37435 | 28 ft | 23 kts | 114° |
| 2026-04-24 12:08 | 25.24008 | 55.37590 | 28 ft | 20 kts | 51° |
| 2026-04-24 12:08 | 25.24121 | 55.37675 | 28 ft | 19 kts | 31° |
| 2026-04-24 12:09 | 25.24236 | 55.37752 | 28 ft | 19 kts | 31° |
| 2026-04-24 12:09 | 25.24342 | 55.37825 | 28 ft | 7 kts | 34° |
| 2026-04-24 12:09 | 25.24355 | 55.37835 | 28 ft | 0 kts | 34° |
| 2026-04-24 12:10 | 25.24377 | 55.37851 | 28 ft | 10 kts | 34° |
| 2026-04-24 12:10 | 25.24448 | 55.37906 | 28 ft | 13 kts | 34° |
| 2026-04-24 12:11 | 25.24606 | 55.38024 | 28 ft | 14 kts | 33° |
| 2026-04-24 12:11 | 25.24692 | 55.38082 | 27 ft | 14 kts | 30° |
| 2026-04-24 12:11 | 25.24760 | 55.38105 | 28 ft | 6 kts | 338° |
| 2026-04-24 12:11 | 25.24773 | 55.38084 | 28 ft | 0 kts | 302° |
| 2026-04-24 12:12 | 25.24805 | 55.38027 | 28 ft | 36 kts | 301° |
| 2026-04-24 12:12 | 25.25228 | 55.37263 | 28 ft | 134 kts | 301° |
| 2026-04-24 12:12 | 25.25598 | 55.36602 | 43 ft | 169 kts | 302° |
| 2026-04-24 12:12 | 25.26250 | 55.35443 | 469 ft | 185 kts | 301° |
| 2026-04-24 12:13 | 25.26918 | 55.34217 | 1247 ft | 181 kts | 301° |
| 2026-04-24 12:13 | 25.27562 | 55.33050 | 2105 ft | 176 kts | 301° |
| 2026-04-24 12:13 | 25.28214 | 55.31878 | 2702 ft | 184 kts | 301° |
| 2026-04-24 12:13 | 25.28900 | 55.30648 | 3387 ft | 187 kts | 301° |
| 2026-04-24 12:14 | 25.29595 | 55.29403 | 3725 ft | 192 kts | 302° |
| 2026-04-24 12:14 | 25.30366 | 55.28183 | 3841 ft | 199 kts | 305° |
| 2026-04-24 12:14 | 25.31166 | 55.26942 | 3950 ft | 201 kts | 305° |
| 2026-04-24 12:14 | 25.31972 | 55.25684 | 4056 ft | 201 kts | 305° |
| 2026-04-24 12:15 | 25.32778 | 55.24421 | 4159 ft | 201 kts | 305° |
| 2026-04-24 12:15 | 25.33603 | 55.23124 | 4188 ft | 218 kts | 304° |
| 2026-04-24 12:15 | 25.34522 | 55.21675 | 4481 ft | 234 kts | 304° |
| 2026-04-24 12:15 | 25.35431 | 55.20182 | 5110 ft | 235 kts | 298° |
| 2026-04-24 12:16 | 25.35892 | 55.18454 | 5669 ft | 237 kts | 273° |
| 2026-04-24 12:16 | 25.35819 | 55.16614 | 6156 ft | 247 kts | 265° |
| 2026-04-24 12:16 | 25.35703 | 55.14648 | 6356 ft | 266 kts | 266° |
| 2026-04-24 12:16 | 25.35606 | 55.12562 | 6824 ft | 273 kts | 267° |
| 2026-04-24 12:17 | 25.35525 | 55.10453 | 7437 ft | 275 kts | 268° |
| 2026-04-24 12:17 | 25.35450 | 55.08328 | 8026 ft | 278 kts | 268° |
| 2026-04-24 12:17 | 25.35377 | 55.06212 | 8616 ft | 280 kts | 268° |
| 2026-04-24 12:17 | 25.35301 | 55.04043 | 9209 ft | 283 kts | 268° |
| 2026-04-24 12:18 | 25.35224 | 55.01859 | 9804 ft | 285 kts | 268° |
| 2026-04-24 12:18 | 25.35146 | 54.99652 | 10374 ft | 289 kts | 268° |
| 2026-04-24 12:18 | 25.35068 | 54.97421 | 10564 ft | 306 kts | 268° |
| 2026-04-24 12:18 | 25.34979 | 54.94951 | 10737 ft | 323 kts | 268° |
| 2026-04-24 12:19 | 25.34928 | 54.92407 | 10965 ft | 336 kts | 272° |
| 2026-04-24 12:19 | 25.35194 | 54.89830 | 11492 ft | 339 kts | 281° |
| 2026-04-24 12:19 | 25.35813 | 54.87305 | 12018 ft | 341 kts | 288° |
| 2026-04-24 12:19 | 25.36556 | 54.84820 | 12541 ft | 344 kts | 288° |
| 2026-04-24 12:20 | 25.37293 | 54.82288 | 13051 ft | 347 kts | 287° |
| 2026-04-24 12:20 | 25.38025 | 54.79735 | 13555 ft | 350 kts | 287° |
| 2026-04-24 12:20 | 25.38762 | 54.77152 | 14058 ft | 352 kts | 287° |
| 2026-04-24 12:20 | 25.39502 | 54.74557 | 14555 ft | 355 kts | 287° |
| 2026-04-24 12:21 | 25.40248 | 54.71941 | 15037 ft | 357 kts | 287° |
| 2026-04-24 12:21 | 25.41000 | 54.69303 | 15516 ft | 360 kts | 287° |
| 2026-04-24 12:21 | 25.41753 | 54.66659 | 15987 ft | 363 kts | 287° |
| 2026-04-24 12:21 | 25.42505 | 54.64017 | 16434 ft | 365 kts | 287° |
| 2026-04-24 12:22 | 25.43269 | 54.61328 | 16894 ft | 368 kts | 287° |
| 2026-04-24 12:22 | 25.44063 | 54.58594 | 17339 ft | 370 kts | 288° |
| 2026-04-24 12:22 | 25.44861 | 54.55913 | 17781 ft | 373 kts | 288° |
| 2026-04-24 12:22 | 25.45677 | 54.53181 | 18211 ft | 375 kts | 288° |
| 2026-04-24 12:23 | 25.46496 | 54.50428 | 18637 ft | 377 kts | 288° |
| 2026-04-24 12:23 | 25.47318 | 54.47658 | 19062 ft | 380 kts | 288° |
| 2026-04-24 12:23 | 25.48142 | 54.44870 | 19490 ft | 382 kts | 288° |
| 2026-04-24 12:23 | 25.48971 | 54.42061 | 19912 ft | 385 kts | 288° |
| 2026-04-24 12:24 | 25.49802 | 54.39240 | 20330 ft | 387 kts | 288° |
| 2026-04-24 12:24 | 25.50637 | 54.36403 | 20742 ft | 390 kts | 288° |
| 2026-04-24 12:24 | 25.51482 | 54.33531 | 21152 ft | 392 kts | 288° |
| 2026-04-24 12:24 | 25.52329 | 54.30651 | 21560 ft | 395 kts | 288° |
| 2026-04-24 12:25 | 25.53182 | 54.27750 | 21963 ft | 397 kts | 288° |
| 2026-04-24 12:25 | 25.54038 | 54.24833 | 22363 ft | 400 kts | 288° |
| 2026-04-24 12:25 | 25.54902 | 54.21890 | 22763 ft | 402 kts | 288° |
| 2026-04-24 12:25 | 25.55756 | 54.18979 | 23144 ft | 404 kts | 288° |
| 2026-04-24 12:26 | 25.56629 | 54.16003 | 23525 ft | 407 kts | 288° |
| 2026-04-24 12:26 | 25.57504 | 54.13020 | 23915 ft | 409 kts | 288° |
| 2026-04-24 12:26 | 25.58390 | 54.09996 | 24133 ft | 416 kts | 288° |
| 2026-04-24 12:26 | 25.59281 | 54.06948 | 24653 ft | 414 kts | 288° |
| 2026-04-24 12:27 | 25.60164 | 54.03902 | 25049 ft | 416 kts | 287° |
| 2026-04-24 12:27 | 25.61038 | 54.00838 | 25401 ft | 419 kts | 287° |
| 2026-04-24 12:27 | 25.61918 | 53.97735 | 25761 ft | 421 kts | 287° |
| 2026-04-24 12:27 | 25.62801 | 53.94626 | 26110 ft | 423 kts | 287° |
| 2026-04-24 12:28 | 25.63687 | 53.91510 | 26452 ft | 426 kts | 287° |
| 2026-04-24 12:28 | 25.64579 | 53.88372 | 26788 ft | 428 kts | 287° |
| 2026-04-24 12:28 | 25.65474 | 53.85222 | 27118 ft | 430 kts | 287° |
| 2026-04-24 12:28 | 25.66375 | 53.82050 | 27433 ft | 432 kts | 287° |
| 2026-04-24 12:29 | 25.67282 | 53.78855 | 27756 ft | 434 kts | 287° |
| 2026-04-24 12:29 | 25.68179 | 53.75691 | 28057 ft | 436 kts | 287° |
| 2026-04-24 12:29 | 25.69092 | 53.72468 | 28360 ft | 439 kts | 287° |
| 2026-04-24 12:29 | 25.70003 | 53.69240 | 28656 ft | 441 kts | 287° |
| 2026-04-24 12:30 | 25.70920 | 53.65979 | 28942 ft | 443 kts | 287° |
| 2026-04-24 12:30 | 25.71837 | 53.62711 | 29221 ft | 444 kts | 287° |
| 2026-04-24 12:30 | 25.72756 | 53.59434 | 29498 ft | 446 kts | 287° |
| 2026-04-24 12:30 | 25.73672 | 53.56170 | 29773 ft | 448 kts | 287° |
| 2026-04-24 12:31 | 25.74598 | 53.52864 | 30046 ft | 450 kts | 287° |
| 2026-04-24 12:31 | 25.75532 | 53.49531 | 30320 ft | 452 kts | 287° |
| 2026-04-24 12:31 | 25.76471 | 53.46182 | 30588 ft | 454 kts | 287° |
| 2026-04-24 12:31 | 25.77413 | 53.42829 | 30868 ft | 456 kts | 287° |
| 2026-04-24 12:32 | 25.78357 | 53.39465 | 31142 ft | 458 kts | 287° |
| 2026-04-24 12:32 | 25.79308 | 53.36071 | 31415 ft | 460 kts | 287° |
| 2026-04-24 12:32 | 25.80258 | 53.32677 | 31666 ft | 462 kts | 287° |
| 2026-04-24 12:32 | 25.81213 | 53.29262 | 31928 ft | 464 kts | 287° |
| 2026-04-24 12:33 | 25.82168 | 53.25840 | 32179 ft | 466 kts | 287° |
| 2026-04-24 12:33 | 25.83129 | 53.22397 | 32422 ft | 467 kts | 287° |
| 2026-04-24 12:33 | 25.84115 | 53.18950 | 32616 ft | 469 kts | 290° |
| 2026-04-24 12:33 | 25.85378 | 53.15608 | 32811 ft | 470 kts | 295° |
| 2026-04-24 12:34 | 25.86745 | 53.12305 | 32973 ft | 472 kts | 294° |
| 2026-04-24 12:34 | 25.88104 | 53.08985 | 33142 ft | 473 kts | 294° |
| 2026-04-24 12:34 | 25.89442 | 53.05698 | 33287 ft | 474 kts | 294° |
| 2026-04-24 12:34 | 25.90797 | 53.02361 | 33419 ft | 475 kts | 294° |
| 2026-04-24 12:35 | 25.91717 | 53.00094 | 33509 ft | 475 kts | 294° |
| 2026-04-24 12:35 | 25.93521 | 52.95650 | 33721 ft | 475 kts | 294° |
| 2026-04-24 12:35 | 25.94876 | 52.92307 | 33896 ft | 475 kts | 294° |
| 2026-04-24 12:35 | 25.96234 | 52.88955 | 34056 ft | 474 kts | 294° |
| 2026-04-24 12:36 | 25.97588 | 52.85612 | 34223 ft | 474 kts | 294° |
| 2026-04-24 12:36 | 25.98943 | 52.82263 | 34379 ft | 474 kts | 294° |
| 2026-04-24 12:36 | 26.00275 | 52.78970 | 34535 ft | 473 kts | 294° |
| 2026-04-24 12:36 | 26.01626 | 52.75624 | 34692 ft | 473 kts | 294° |
| 2026-04-24 12:37 | 26.02999 | 52.72303 | 34839 ft | 473 kts | 296° |
| 2026-04-24 12:37 | 26.04470 | 52.69034 | 35004 ft | 472 kts | 297° |
| 2026-04-24 12:37 | 26.05972 | 52.65777 | 35134 ft | 472 kts | 297° |
| 2026-04-24 12:37 | 26.07469 | 52.62520 | 35294 ft | 472 kts | 297° |
| 2026-04-24 12:38 | 26.08951 | 52.59263 | 35432 ft | 471 kts | 296° |
| 2026-04-24 12:38 | 26.10425 | 52.55999 | 35575 ft | 471 kts | 296° |
| 2026-04-24 12:38 | 26.11889 | 52.52744 | 35715 ft | 471 kts | 296° |
| 2026-04-24 12:39 | 26.16273 | 52.43020 | 35997 ft | 470 kts | 296° |
| 2026-04-24 12:39 | 26.17737 | 52.39770 | 36003 ft | 469 kts | 296° |
| 2026-04-24 12:40 | 26.20663 | 52.33265 | 35996 ft | 469 kts | 296° |
| 2026-04-24 12:40 | 26.23563 | 52.26746 | 36001 ft | 469 kts | 295° |
| 2026-04-24 12:41 | 26.26390 | 52.20180 | 35997 ft | 469 kts | 295° |
| 2026-04-24 12:41 | 26.29215 | 52.13618 | 35999 ft | 469 kts | 295° |
| 2026-04-24 12:42 | 26.32045 | 52.07060 | 36003 ft | 469 kts | 295° |
| 2026-04-24 12:42 | 26.34880 | 52.00499 | 35997 ft | 469 kts | 295° |
| 2026-04-24 12:43 | 26.37657 | 51.93956 | 35998 ft | 469 kts | 292° |
| 2026-04-24 12:43 | 26.39946 | 51.87151 | 35999 ft | 469 kts | 290° |
| 2026-04-24 12:44 | 26.42237 | 51.80330 | 36002 ft | 469 kts | 290° |
| 2026-04-24 12:44 | 26.44523 | 51.73519 | 36000 ft | 469 kts | 290° |
| 2026-04-24 12:45 | 26.46807 | 51.66697 | 35999 ft | 469 kts | 290° |
| 2026-04-24 12:45 | 26.49087 | 51.59868 | 36001 ft | 469 kts | 290° |
| 2026-04-24 12:46 | 26.51361 | 51.53035 | 36002 ft | 469 kts | 290° |
| 2026-04-24 12:46 | 26.53632 | 51.46198 | 35996 ft | 469 kts | 290° |
| 2026-04-24 12:47 | 26.55899 | 51.39361 | 36002 ft | 469 kts | 290° |
| 2026-04-24 12:47 | 26.58164 | 51.32518 | 36001 ft | 469 kts | 290° |
| 2026-04-24 12:48 | 26.60432 | 51.25661 | 36003 ft | 469 kts | 290° |
| 2026-04-24 12:48 | 26.62697 | 51.18826 | 36001 ft | 469 kts | 290° |
| 2026-04-24 12:49 | 26.64579 | 51.13135 | 36000 ft | 469 kts | 290° |
| 2026-04-24 12:49 | 26.67209 | 51.05162 | 35998 ft | 469 kts | 290° |
| 2026-04-24 12:50 | 26.69084 | 50.99461 | 35999 ft | 469 kts | 290° |
| 2026-04-24 12:50 | 26.71288 | 50.92584 | 36003 ft | 469 kts | 289° |
| 2026-04-24 12:51 | 26.73482 | 50.85695 | 36002 ft | 469 kts | 289° |
| 2026-04-24 12:51 | 26.75676 | 50.78815 | 36001 ft | 469 kts | 289° |
| 2026-04-24 12:52 | 26.77859 | 50.71965 | 35998 ft | 469 kts | 289° |
| 2026-04-24 12:52 | 26.80547 | 50.65312 | 35999 ft | 469 kts | 300° |
| 2026-04-24 12:53 | 26.84299 | 50.59330 | 36000 ft | 469 kts | 310° |
| 2026-04-24 12:53 | 26.88451 | 50.53680 | 35999 ft | 469 kts | 309° |
| 2026-04-24 12:54 | 26.92627 | 50.48061 | 36001 ft | 469 kts | 313° |
| 2026-04-24 12:54 | 26.97093 | 50.42787 | 36000 ft | 469 kts | 313° |
| 2026-04-24 12:55 | 27.01575 | 50.37454 | 35997 ft | 470 kts | 313° |
| 2026-04-24 12:55 | 27.06054 | 50.32115 | 35999 ft | 470 kts | 313° |
| 2026-04-24 12:56 | 27.10501 | 50.26745 | 36002 ft | 470 kts | 313° |
| 2026-04-24 12:56 | 27.14968 | 50.21380 | 36000 ft | 470 kts | 315° |
| 2026-04-24 12:57 | 27.20018 | 50.16728 | 36001 ft | 470 kts | 324° |
| 2026-04-24 12:57 | 27.25298 | 50.12397 | 35999 ft | 470 kts | 323° |
| 2026-04-24 12:58 | 27.30563 | 50.08039 | 35999 ft | 470 kts | 323° |
| 2026-04-24 12:58 | 27.35836 | 50.03674 | 36003 ft | 470 kts | 323° |
| 2026-04-24 12:59 | 27.41026 | 49.99195 | 36002 ft | 470 kts | 321° |
| 2026-04-24 12:59 | 27.46155 | 49.94632 | 35999 ft | 470 kts | 321° |
| 2026-04-24 13:00 | 27.51309 | 49.90076 | 36002 ft | 470 kts | 322° |
| 2026-04-24 13:00 | 27.56460 | 49.85535 | 36001 ft | 470 kts | 322° |
| 2026-04-24 13:01 | 27.61587 | 49.81011 | 36004 ft | 470 kts | 322° |
| 2026-04-24 13:01 | 27.66744 | 49.76455 | 36003 ft | 470 kts | 322° |
| 2026-04-24 13:02 | 27.71885 | 49.71906 | 36002 ft | 470 kts | 322° |
| 2026-04-24 13:02 | 27.77037 | 49.67344 | 36001 ft | 470 kts | 321° |
| 2026-04-24 13:03 | 27.82177 | 49.62772 | 36002 ft | 470 kts | 321° |
| 2026-04-24 13:03 | 27.87309 | 49.58184 | 36002 ft | 470 kts | 321° |
| 2026-04-24 13:04 | 27.92441 | 49.53594 | 36000 ft | 470 kts | 321° |
| 2026-04-24 13:04 | 27.97556 | 49.49016 | 36001 ft | 470 kts | 321° |
| 2026-04-24 13:05 | 28.02685 | 49.44419 | 36001 ft | 470 kts | 321° |
| 2026-04-24 13:05 | 28.07790 | 49.39786 | 36001 ft | 470 kts | 321° |
| 2026-04-24 13:06 | 28.12851 | 49.35154 | 36003 ft | 470 kts | 321° |
| 2026-04-24 13:06 | 28.17943 | 49.30497 | 35995 ft | 470 kts | 321° |
| 2026-04-24 13:07 | 28.23036 | 49.25838 | 36003 ft | 470 kts | 321° |
| 2026-04-24 13:07 | 28.28127 | 49.21176 | 35998 ft | 470 kts | 321° |
| 2026-04-24 13:08 | 28.33218 | 49.16508 | 36002 ft | 470 kts | 321° |
| 2026-04-24 13:08 | 28.38298 | 49.11845 | 36001 ft | 470 kts | 321° |
| 2026-04-24 13:09 | 28.46318 | 49.05508 | 36000 ft | 470 kts | 326° |
| 2026-04-24 13:09 | 28.51743 | 49.01345 | 36001 ft | 470 kts | 326° |
| 2026-04-24 13:10 | 28.57155 | 48.97186 | 36002 ft | 470 kts | 326° |
| 2026-04-24 13:10 | 28.62585 | 48.93012 | 36000 ft | 470 kts | 326° |
| 2026-04-24 13:11 | 28.67996 | 48.88847 | 36002 ft | 470 kts | 326° |
| 2026-04-24 13:11 | 28.73391 | 48.84690 | 36000 ft | 470 kts | 326° |
| 2026-04-24 13:12 | 28.78821 | 48.80500 | 36004 ft | 470 kts | 326° |
| 2026-04-24 13:12 | 28.84240 | 48.76329 | 36002 ft | 470 kts | 326° |
| 2026-04-24 13:13 | 28.89676 | 48.72172 | 35998 ft | 470 kts | 326° |
| 2026-04-24 13:13 | 28.95111 | 48.68007 | 35997 ft | 470 kts | 326° |
| 2026-04-24 13:14 | 29.00547 | 48.63832 | 36001 ft | 470 kts | 326° |
| 2026-04-24 13:14 | 29.05974 | 48.59658 | 36001 ft | 470 kts | 326° |
| 2026-04-24 13:15 | 29.11398 | 48.55481 | 36001 ft | 470 kts | 326° |
| 2026-04-24 13:15 | 29.16787 | 48.51325 | 35997 ft | 470 kts | 326° |
| 2026-04-24 13:16 | 29.22205 | 48.47142 | 35999 ft | 470 kts | 326° |
| 2026-04-24 13:16 | 29.27642 | 48.42938 | 36000 ft | 470 kts | 326° |
| 2026-04-24 13:17 | 29.33068 | 48.38738 | 35999 ft | 470 kts | 326° |
| 2026-04-24 13:17 | 29.38489 | 48.34536 | 35999 ft | 470 kts | 326° |
| 2026-04-24 13:18 | 29.43921 | 48.30354 | 35993 ft | 470 kts | 328° |
| 2026-04-24 13:18 | 29.49559 | 48.26650 | 35999 ft | 470 kts | 330° |
| 2026-04-24 13:19 | 29.55242 | 48.22913 | 35999 ft | 470 kts | 330° |
| 2026-04-24 13:19 | 29.60925 | 48.19167 | 35997 ft | 470 kts | 330° |
| 2026-04-24 13:20 | 29.66600 | 48.15423 | 35997 ft | 470 kts | 330° |
| 2026-04-24 13:20 | 29.72240 | 48.11698 | 36003 ft | 470 kts | 330° |
| 2026-04-24 13:21 | 29.77911 | 48.07948 | 35999 ft | 470 kts | 330° |
| 2026-04-24 13:21 | 29.83589 | 48.04188 | 36001 ft | 470 kts | 330° |
| 2026-04-24 13:22 | 29.89266 | 48.00425 | 36001 ft | 470 kts | 330° |
| 2026-04-24 13:22 | 29.94930 | 47.96664 | 36004 ft | 470 kts | 330° |
| 2026-04-24 13:23 | 30.00482 | 47.92669 | 36000 ft | 470 kts | 323° |
| 2026-04-24 13:23 | 30.05339 | 47.87634 | 35997 ft | 469 kts | 312° |
| 2026-04-24 13:24 | 30.09611 | 47.81935 | 35995 ft | 469 kts | 310° |
| 2026-04-24 13:24 | 30.13894 | 47.76240 | 35997 ft | 470 kts | 310° |
| 2026-04-24 13:25 | 30.18174 | 47.70533 | 36002 ft | 470 kts | 310° |
| 2026-04-24 13:25 | 30.22430 | 47.64838 | 36002 ft | 470 kts | 310° |
| 2026-04-24 13:26 | 30.26702 | 47.59111 | 36001 ft | 470 kts | 310° |
| 2026-04-24 13:26 | 30.30964 | 47.53389 | 36001 ft | 470 kts | 310° |
| 2026-04-24 13:27 | 30.35211 | 47.47680 | 35999 ft | 470 kts | 310° |
| 2026-04-24 13:27 | 30.39479 | 47.41935 | 36001 ft | 470 kts | 310° |
| 2026-04-24 13:28 | 30.43736 | 47.36194 | 35997 ft | 470 kts | 310° |
| 2026-04-24 13:28 | 30.47999 | 47.30439 | 36003 ft | 470 kts | 310° |
| 2026-04-24 13:29 | 30.52252 | 47.24687 | 35999 ft | 470 kts | 310° |
| 2026-04-24 13:29 | 30.56519 | 47.18932 | 36000 ft | 470 kts | 312° |
| 2026-04-24 13:30 | 30.61113 | 47.13606 | 35999 ft | 470 kts | 315° |
| 2026-04-24 13:30 | 30.65755 | 47.08263 | 35999 ft | 470 kts | 315° |
| 2026-04-24 13:31 | 30.70409 | 47.02919 | 36001 ft | 470 kts | 315° |
| 2026-04-24 13:31 | 30.75060 | 46.97580 | 36002 ft | 470 kts | 315° |
| 2026-04-24 13:32 | 30.79708 | 46.92240 | 36001 ft | 470 kts | 315° |
| 2026-04-24 13:32 | 30.84358 | 46.86889 | 36002 ft | 470 kts | 315° |
| 2026-04-24 13:33 | 30.89007 | 46.81534 | 35999 ft | 470 kts | 316° |
| 2026-04-24 13:33 | 30.94188 | 46.76909 | 35994 ft | 469 kts | 324° |
| 2026-04-24 13:34 | 30.99545 | 46.72542 | 35998 ft | 470 kts | 325° |
| 2026-04-24 13:34 | 31.04389 | 46.67479 | 35999 ft | 469 kts | 313° |
| 2026-04-24 13:35 | 31.08843 | 46.61966 | 36000 ft | 469 kts | 314° |
| 2026-04-24 13:35 | 31.13421 | 46.56520 | 36002 ft | 470 kts | 315° |
| 2026-04-24 13:36 | 31.17295 | 46.51998 | 36001 ft | 470 kts | 315° |
| 2026-04-24 13:36 | 31.21930 | 46.46598 | 36004 ft | 470 kts | 315° |
| 2026-04-24 13:37 | 31.26524 | 46.41233 | 36004 ft | 470 kts | 315° |
| 2026-04-24 13:37 | 31.31150 | 46.35823 | 36000 ft | 470 kts | 315° |
| 2026-04-24 13:38 | 31.35776 | 46.30404 | 35999 ft | 470 kts | 315° |
| 2026-04-24 13:38 | 31.40393 | 46.24987 | 36003 ft | 470 kts | 315° |
| 2026-04-24 13:39 | 31.45013 | 46.19558 | 35997 ft | 470 kts | 315° |
| 2026-04-24 13:39 | 31.49632 | 46.14124 | 36003 ft | 470 kts | 314° |
| 2026-04-24 13:40 | 31.54239 | 46.08694 | 36003 ft | 470 kts | 314° |
| 2026-04-24 13:40 | 31.58852 | 46.03250 | 36000 ft | 470 kts | 314° |
| 2026-04-24 13:41 | 31.63460 | 45.97803 | 36002 ft | 470 kts | 314° |
| 2026-04-24 13:41 | 31.68031 | 45.92391 | 36003 ft | 470 kts | 314° |
| 2026-04-24 13:42 | 31.72665 | 45.86894 | 36003 ft | 470 kts | 314° |
| 2026-04-24 13:42 | 31.77227 | 45.81473 | 36001 ft | 470 kts | 314° |
| 2026-04-24 13:43 | 31.81820 | 45.76005 | 36002 ft | 470 kts | 314° |
| 2026-04-24 13:43 | 31.86411 | 45.70532 | 36002 ft | 470 kts | 314° |
| 2026-04-24 13:44 | 31.91002 | 45.65051 | 36001 ft | 470 kts | 314° |
| 2026-04-24 13:44 | 31.95589 | 45.59567 | 36000 ft | 470 kts | 314° |
| 2026-04-24 13:45 | 32.00182 | 45.54068 | 36000 ft | 470 kts | 314° |
| 2026-04-24 13:45 | 32.04758 | 45.48580 | 35998 ft | 470 kts | 314° |
| 2026-04-24 13:46 | 32.09311 | 45.43111 | 36000 ft | 470 kts | 314° |
| 2026-04-24 13:46 | 32.13895 | 45.37597 | 36002 ft | 470 kts | 314° |
| 2026-04-24 13:47 | 32.18469 | 45.32087 | 36000 ft | 470 kts | 314° |
| 2026-04-24 13:47 | 32.23039 | 45.26573 | 36001 ft | 470 kts | 314° |
| 2026-04-24 13:48 | 32.27610 | 45.21049 | 36002 ft | 470 kts | 314° |
| 2026-04-24 13:48 | 32.32183 | 45.15515 | 36002 ft | 470 kts | 314° |
| 2026-04-24 13:49 | 32.36721 | 45.10014 | 36000 ft | 470 kts | 314° |
| 2026-04-24 13:49 | 32.41288 | 45.04470 | 36000 ft | 470 kts | 314° |
| 2026-04-24 13:50 | 32.45854 | 44.98918 | 35998 ft | 470 kts | 314° |
| 2026-04-24 13:50 | 32.50409 | 44.93371 | 36002 ft | 470 kts | 314° |
| 2026-04-24 13:51 | 32.54969 | 44.87810 | 36000 ft | 470 kts | 314° |
| 2026-04-24 13:51 | 32.59520 | 44.82251 | 35999 ft | 470 kts | 314° |
| 2026-04-24 13:52 | 32.64081 | 44.76671 | 35999 ft | 470 kts | 314° |
| 2026-04-24 13:52 | 32.68629 | 44.71098 | 35998 ft | 470 kts | 314° |
| 2026-04-24 13:53 | 32.73152 | 44.65546 | 36001 ft | 470 kts | 314° |
| 2026-04-24 13:53 | 32.77693 | 44.59965 | 36002 ft | 470 kts | 314° |
| 2026-04-24 13:54 | 32.82235 | 44.54373 | 36001 ft | 470 kts | 314° |
| 2026-04-24 13:54 | 32.86782 | 44.48766 | 36000 ft | 470 kts | 314° |
| 2026-04-24 13:55 | 32.91322 | 44.43161 | 36000 ft | 470 kts | 314° |
| 2026-04-24 13:55 | 32.95828 | 44.37586 | 36001 ft | 470 kts | 314° |
| 2026-04-24 13:56 | 33.00360 | 44.31972 | 35995 ft | 470 kts | 314° |
| 2026-04-24 13:56 | 33.04893 | 44.26347 | 35998 ft | 470 kts | 314° |
| 2026-04-24 13:57 | 33.09424 | 44.20716 | 36002 ft | 470 kts | 313° |
| 2026-04-24 13:57 | 33.13951 | 44.15081 | 36002 ft | 470 kts | 313° |
| 2026-04-24 13:58 | 33.18475 | 44.09441 | 36002 ft | 470 kts | 313° |
| 2026-04-24 13:58 | 33.22994 | 44.03798 | 35999 ft | 470 kts | 313° |
| 2026-04-24 13:59 | 33.27486 | 43.98179 | 36000 ft | 470 kts | 313° |
| 2026-04-24 13:59 | 33.32001 | 43.92522 | 36001 ft | 470 kts | 313° |
| 2026-04-24 14:00 | 33.36512 | 43.86863 | 36001 ft | 470 kts | 313° |
| 2026-04-24 14:00 | 33.41026 | 43.81189 | 36002 ft | 470 kts | 313° |
| 2026-04-24 14:01 | 33.45534 | 43.75515 | 36000 ft | 470 kts | 313° |
| 2026-04-24 14:01 | 33.50009 | 43.69873 | 36000 ft | 470 kts | 313° |
| 2026-04-24 14:02 | 33.54537 | 43.64155 | 35999 ft | 470 kts | 313° |
| 2026-04-24 14:02 | 33.59038 | 43.58461 | 36001 ft | 470 kts | 313° |
| 2026-04-24 14:03 | 33.63505 | 43.52802 | 35997 ft | 470 kts | 313° |
| 2026-04-24 14:03 | 33.67999 | 43.47099 | 36001 ft | 470 kts | 313° |
| 2026-04-24 14:04 | 33.72489 | 43.41391 | 36001 ft | 470 kts | 313° |
| 2026-04-24 14:04 | 33.76985 | 43.35668 | 36001 ft | 470 kts | 313° |
| 2026-04-24 14:05 | 33.81472 | 43.29945 | 36002 ft | 470 kts | 313° |
| 2026-04-24 14:05 | 33.85951 | 43.24224 | 35998 ft | 470 kts | 313° |
| 2026-04-24 14:06 | 33.90434 | 43.18488 | 35998 ft | 470 kts | 313° |
| 2026-04-24 14:06 | 33.94914 | 43.12746 | 35998 ft | 470 kts | 313° |
| 2026-04-24 14:07 | 33.99388 | 43.07004 | 35997 ft | 470 kts | 313° |
| 2026-04-24 14:07 | 34.03831 | 43.01290 | 35999 ft | 470 kts | 313° |
| 2026-04-24 14:08 | 34.08306 | 42.95526 | 35996 ft | 470 kts | 313° |
| 2026-04-24 14:08 | 34.12779 | 42.89757 | 35999 ft | 470 kts | 313° |
| 2026-04-24 14:09 | 34.17252 | 42.83976 | 36002 ft | 474 kts | 313° |
| 2026-04-24 14:09 | 34.21774 | 42.78123 | 35994 ft | 478 kts | 313° |
| 2026-04-24 14:10 | 34.26327 | 42.72220 | 36002 ft | 480 kts | 313° |
| 2026-04-24 14:10 | 34.30889 | 42.66295 | 36002 ft | 482 kts | 313° |
| 2026-04-24 14:11 | 34.35455 | 42.60355 | 35998 ft | 483 kts | 313° |
| 2026-04-24 14:12 | 34.42292 | 42.51441 | 36002 ft | 483 kts | 313° |
| 2026-04-24 14:12 | 34.46866 | 42.45465 | 36002 ft | 483 kts | 313° |
| 2026-04-24 14:13 | 34.51441 | 42.39476 | 36002 ft | 483 kts | 313° |
| 2026-04-24 14:13 | 34.55998 | 42.33501 | 36001 ft | 483 kts | 313° |
| 2026-04-24 14:14 | 34.60561 | 42.27509 | 35997 ft | 483 kts | 312° |
| 2026-04-24 14:14 | 34.67360 | 42.18559 | 36000 ft | 483 kts | 312° |
| 2026-04-24 14:15 | 34.71916 | 42.12549 | 36000 ft | 483 kts | 312° |
| 2026-04-24 14:15 | 34.76467 | 42.06536 | 36001 ft | 483 kts | 312° |
| 2026-04-24 14:16 | 34.81017 | 42.00512 | 35999 ft | 483 kts | 312° |
| 2026-04-24 14:17 | 34.87839 | 41.91461 | 35999 ft | 483 kts | 312° |
| 2026-04-24 14:17 | 34.94620 | 41.82442 | 36000 ft | 483 kts | 312° |
| 2026-04-24 14:18 | 34.99160 | 41.76389 | 36000 ft | 483 kts | 312° |
| 2026-04-24 14:18 | 35.03693 | 41.70336 | 36000 ft | 483 kts | 312° |
| 2026-04-24 14:19 | 35.08220 | 41.64279 | 35999 ft | 483 kts | 312° |
| 2026-04-24 14:19 | 35.12750 | 41.58208 | 36004 ft | 483 kts | 312° |
| 2026-04-24 14:20 | 35.16509 | 41.53161 | 36002 ft | 483 kts | 312° |
| 2026-04-24 14:20 | 35.21774 | 41.46081 | 36003 ft | 483 kts | 312° |
| 2026-04-24 14:21 | 35.25527 | 41.41026 | 36003 ft | 483 kts | 312° |
| 2026-04-24 14:21 | 35.30040 | 41.34935 | 35999 ft | 483 kts | 312° |
| 2026-04-24 14:22 | 35.34548 | 41.28840 | 36003 ft | 483 kts | 312° |
| 2026-04-24 14:23 | 35.41313 | 41.19675 | 36002 ft | 482 kts | 312° |
| 2026-04-24 14:23 | 35.45809 | 41.13569 | 36001 ft | 482 kts | 312° |
| 2026-04-24 14:24 | 35.50310 | 41.07447 | 36001 ft | 482 kts | 311° |
| 2026-04-24 14:24 | 35.54775 | 41.01362 | 35996 ft | 483 kts | 311° |
| 2026-04-24 14:25 | 35.59272 | 40.95222 | 35996 ft | 483 kts | 311° |
| 2026-04-24 14:25 | 35.63758 | 40.89086 | 36001 ft | 483 kts | 311° |
| 2026-04-24 14:26 | 35.68243 | 40.82940 | 36001 ft | 483 kts | 311° |
| 2026-04-24 14:26 | 35.72732 | 40.76778 | 35998 ft | 483 kts | 311° |
| 2026-04-24 14:27 | 35.77208 | 40.70622 | 36001 ft | 483 kts | 311° |
| 2026-04-24 14:27 | 35.81688 | 40.64450 | 35994 ft | 483 kts | 311° |
| 2026-04-24 14:28 | 35.86139 | 40.58306 | 35998 ft | 483 kts | 311° |
| 2026-04-24 14:28 | 35.90611 | 40.52122 | 35998 ft | 483 kts | 311° |
| 2026-04-24 14:29 | 35.95078 | 40.45933 | 35995 ft | 483 kts | 311° |
| 2026-04-24 14:29 | 35.99545 | 40.39734 | 35999 ft | 483 kts | 311° |
| 2026-04-24 14:30 | 36.03998 | 40.33542 | 36001 ft | 483 kts | 311° |
| 2026-04-24 14:30 | 36.08458 | 40.27329 | 36000 ft | 483 kts | 311° |
| 2026-04-24 14:31 | 36.12925 | 40.21095 | 35999 ft | 483 kts | 311° |
| 2026-04-24 14:31 | 36.17376 | 40.14870 | 35998 ft | 483 kts | 311° |
| 2026-04-24 14:32 | 36.21833 | 40.08626 | 35995 ft | 484 kts | 311° |
| 2026-04-24 14:32 | 36.26293 | 40.02367 | 35985 ft | 484 kts | 311° |
| 2026-04-24 14:33 | 36.30755 | 39.96093 | 35988 ft | 484 kts | 311° |
| 2026-04-24 14:33 | 36.35178 | 39.89862 | 35999 ft | 484 kts | 311° |
| 2026-04-24 14:34 | 36.39627 | 39.83583 | 35999 ft | 484 kts | 311° |
| 2026-04-24 14:34 | 36.44079 | 39.77287 | 35999 ft | 484 kts | 311° |
| 2026-04-24 14:35 | 36.48513 | 39.71005 | 36003 ft | 484 kts | 311° |
| 2026-04-24 14:35 | 36.52958 | 39.64697 | 36004 ft | 484 kts | 311° |
| 2026-04-24 14:36 | 36.57371 | 39.58420 | 36005 ft | 484 kts | 311° |
| 2026-04-24 14:36 | 36.61810 | 39.52096 | 36004 ft | 484 kts | 311° |
| 2026-04-24 14:37 | 36.66233 | 39.45782 | 36004 ft | 484 kts | 311° |
| 2026-04-24 14:37 | 36.70660 | 39.39450 | 36000 ft | 484 kts | 311° |
| 2026-04-24 14:38 | 36.75073 | 39.33126 | 35999 ft | 484 kts | 311° |
| 2026-04-24 14:38 | 36.79494 | 39.26780 | 35998 ft | 484 kts | 310° |
| 2026-04-24 14:39 | 36.83867 | 39.20489 | 36000 ft | 484 kts | 310° |
| 2026-04-24 14:39 | 36.88287 | 39.14118 | 36001 ft | 484 kts | 310° |
| 2026-04-24 14:40 | 36.92693 | 39.07756 | 36001 ft | 484 kts | 310° |
| 2026-04-24 14:40 | 36.97091 | 39.01394 | 36003 ft | 484 kts | 310° |
| 2026-04-24 14:41 | 37.01490 | 38.95018 | 36003 ft | 484 kts | 310° |
| 2026-04-24 14:41 | 37.05887 | 38.88631 | 36002 ft | 484 kts | 310° |
| 2026-04-24 14:42 | 37.10280 | 38.82239 | 35999 ft | 484 kts | 310° |
| 2026-04-24 14:42 | 37.14643 | 38.75877 | 35985 ft | 484 kts | 310° |
| 2026-04-24 14:43 | 37.19037 | 38.69458 | 35996 ft | 484 kts | 310° |
| 2026-04-24 14:43 | 37.23428 | 38.63031 | 35993 ft | 485 kts | 310° |
| 2026-04-24 14:44 | 37.27826 | 38.56582 | 35984 ft | 485 kts | 310° |
| 2026-04-24 14:44 | 37.32212 | 38.50136 | 35998 ft | 485 kts | 310° |
| 2026-04-24 14:45 | 37.36599 | 38.43676 | 36004 ft | 485 kts | 310° |
| 2026-04-24 14:45 | 37.40977 | 38.37218 | 36003 ft | 485 kts | 310° |
| 2026-04-24 14:46 | 37.45356 | 38.30745 | 36004 ft | 485 kts | 310° |
| 2026-04-24 14:46 | 37.49700 | 38.24311 | 36003 ft | 485 kts | 310° |
| 2026-04-24 14:47 | 37.54067 | 38.17831 | 35999 ft | 485 kts | 310° |
| 2026-04-24 14:47 | 37.58428 | 38.11347 | 36004 ft | 485 kts | 310° |
| 2026-04-24 14:48 | 37.62788 | 38.04850 | 36001 ft | 485 kts | 310° |
| 2026-04-24 14:48 | 37.67126 | 37.98374 | 35990 ft | 485 kts | 310° |
| 2026-04-24 14:49 | 37.71484 | 37.91855 | 36000 ft | 485 kts | 310° |
| 2026-04-24 14:49 | 37.75849 | 37.85312 | 36002 ft | 486 kts | 310° |
| 2026-04-24 14:50 | 37.80213 | 37.78759 | 36000 ft | 488 kts | 310° |
| 2026-04-24 14:50 | 37.84562 | 37.72214 | 36002 ft | 488 kts | 310° |
| 2026-04-24 14:51 | 37.88926 | 37.65633 | 36001 ft | 487 kts | 310° |
| 2026-04-24 14:51 | 37.93299 | 37.59026 | 36001 ft | 490 kts | 310° |
| 2026-04-24 14:52 | 37.97675 | 37.52400 | 35997 ft | 489 kts | 309° |
| 2026-04-24 14:52 | 38.02041 | 37.45776 | 35997 ft | 491 kts | 309° |
| 2026-04-24 14:53 | 38.06422 | 37.39117 | 35998 ft | 492 kts | 309° |
| 2026-04-24 14:53 | 38.10784 | 37.32471 | 36001 ft | 491 kts | 309° |
| 2026-04-24 14:54 | 38.15155 | 37.25799 | 36000 ft | 491 kts | 309° |
| 2026-04-24 14:54 | 38.19511 | 37.19135 | 35997 ft | 489 kts | 309° |
| 2026-04-24 14:55 | 38.23120 | 37.13604 | 36002 ft | 489 kts | 309° |
| 2026-04-24 14:55 | 38.28195 | 37.05811 | 35995 ft | 489 kts | 309° |
| 2026-04-24 14:56 | 38.32528 | 36.99141 | 35998 ft | 489 kts | 309° |
| 2026-04-24 14:56 | 38.36865 | 36.92451 | 35995 ft | 489 kts | 309° |
| 2026-04-24 14:57 | 38.41201 | 36.85751 | 35994 ft | 489 kts | 309° |
| 2026-04-24 14:57 | 38.45502 | 36.79088 | 35976 ft | 490 kts | 309° |
| 2026-04-24 14:58 | 38.49839 | 36.72359 | 35982 ft | 491 kts | 309° |
| 2026-04-24 14:58 | 38.54177 | 36.65611 | 35972 ft | 492 kts | 309° |
| 2026-04-24 14:59 | 38.58521 | 36.58841 | 35983 ft | 493 kts | 309° |
| 2026-04-24 14:59 | 38.62872 | 36.52046 | 35978 ft | 493 kts | 309° |
| 2026-04-24 15:00 | 38.67188 | 36.45291 | 35994 ft | 493 kts | 309° |
| 2026-04-24 15:00 | 38.71528 | 36.38484 | 36001 ft | 493 kts | 309° |
| 2026-04-24 15:01 | 38.75864 | 36.31669 | 35999 ft | 493 kts | 309° |
| 2026-04-24 15:01 | 38.80200 | 36.24840 | 35994 ft | 493 kts | 309° |
| 2026-04-24 15:02 | 38.84529 | 36.18005 | 36006 ft | 493 kts | 309° |
| 2026-04-24 15:02 | 38.88849 | 36.11172 | 35982 ft | 493 kts | 309° |
| 2026-04-24 15:03 | 38.92443 | 36.05475 | 36005 ft | 493 kts | 309° |
| 2026-04-24 15:03 | 38.97451 | 35.97521 | 36016 ft | 492 kts | 309° |
| 2026-04-24 15:04 | 39.01747 | 35.90682 | 36017 ft | 491 kts | 309° |
| 2026-04-24 15:04 | 39.06032 | 35.83846 | 36014 ft | 490 kts | 308° |
| 2026-04-24 15:05 | 39.10310 | 35.77005 | 36001 ft | 490 kts | 308° |
| 2026-04-24 15:05 | 39.14587 | 35.70152 | 35999 ft | 491 kts | 308° |
| 2026-04-24 15:06 | 39.18835 | 35.63330 | 35995 ft | 491 kts | 308° |
| 2026-04-24 15:06 | 39.23107 | 35.56456 | 36003 ft | 491 kts | 308° |
| 2026-04-24 15:07 | 39.27380 | 35.49566 | 36006 ft | 491 kts | 308° |
| 2026-04-24 15:07 | 39.30921 | 35.43843 | 36006 ft | 490 kts | 308° |
| 2026-04-24 15:08 | 39.35180 | 35.36948 | 36008 ft | 490 kts | 308° |
| 2026-04-24 15:08 | 39.39427 | 35.30057 | 36003 ft | 490 kts | 308° |
| 2026-04-24 15:09 | 39.43677 | 35.23145 | 35997 ft | 490 kts | 308° |
| 2026-04-24 15:09 | 39.47896 | 35.16269 | 36006 ft | 490 kts | 308° |
| 2026-04-24 15:10 | 39.52131 | 35.09351 | 36010 ft | 489 kts | 308° |
| 2026-04-24 15:10 | 39.56362 | 35.02425 | 36011 ft | 489 kts | 308° |
| 2026-04-24 15:11 | 39.60580 | 34.95506 | 36009 ft | 489 kts | 308° |
| 2026-04-24 15:11 | 39.64765 | 34.88627 | 35999 ft | 489 kts | 308° |
| 2026-04-24 15:12 | 39.68975 | 34.81689 | 35992 ft | 489 kts | 308° |
| 2026-04-24 15:12 | 39.75281 | 34.71271 | 36006 ft | 489 kts | 308° |
| 2026-04-24 15:13 | 39.79485 | 34.64305 | 36004 ft | 489 kts | 308° |
| 2026-04-24 15:13 | 39.83680 | 34.57341 | 36008 ft | 489 kts | 308° |
| 2026-04-24 15:14 | 39.87871 | 34.50366 | 35996 ft | 489 kts | 308° |
| 2026-04-24 15:14 | 39.92037 | 34.43418 | 36001 ft | 489 kts | 308° |
| 2026-04-24 15:15 | 39.96219 | 34.36427 | 35998 ft | 489 kts | 308° |
| 2026-04-24 15:15 | 40.00401 | 34.29422 | 35998 ft | 489 kts | 308° |
| 2026-04-24 15:16 | 40.04579 | 34.22407 | 36016 ft | 488 kts | 308° |
| 2026-04-24 15:16 | 40.08736 | 34.15411 | 36018 ft | 487 kts | 307° |
| 2026-04-24 15:17 | 40.12888 | 34.08410 | 36012 ft | 487 kts | 307° |
| 2026-04-24 15:17 | 40.17008 | 34.01445 | 36012 ft | 487 kts | 307° |
| 2026-04-24 15:18 | 40.21146 | 33.94435 | 35984 ft | 487 kts | 307° |
| 2026-04-24 15:18 | 40.25278 | 33.87419 | 36002 ft | 487 kts | 307° |
| 2026-04-24 15:19 | 40.29410 | 33.80389 | 36006 ft | 486 kts | 307° |
| 2026-04-24 15:19 | 40.33534 | 33.73356 | 36009 ft | 486 kts | 307° |
| 2026-04-24 15:20 | 40.37647 | 33.66325 | 35996 ft | 486 kts | 307° |
| 2026-04-24 15:20 | 40.41761 | 33.59276 | 35997 ft | 486 kts | 307° |
| 2026-04-24 15:21 | 40.45852 | 33.52251 | 35982 ft | 487 kts | 307° |
| 2026-04-24 15:21 | 40.49971 | 33.45163 | 35978 ft | 488 kts | 307° |
| 2026-04-24 15:22 | 40.54092 | 33.38054 | 35981 ft | 489 kts | 307° |
| 2026-04-24 15:23 | 40.60270 | 33.27367 | 35985 ft | 490 kts | 307° |
| 2026-04-24 15:23 | 40.66454 | 33.16632 | 35997 ft | 490 kts | 307° |
| 2026-04-24 15:25 | 40.76038 | 32.99922 | 36003 ft | 490 kts | 307° |
| 2026-04-24 15:26 | 40.86963 | 32.80763 | 35984 ft | 490 kts | 307° |
| 2026-04-24 15:27 | 40.99222 | 32.59122 | 36027 ft | 488 kts | 307° |
| 2026-04-24 15:29 | 41.11392 | 32.37487 | 36007 ft | 489 kts | 306° |
| 2026-04-24 15:31 | 41.25431 | 32.12338 | 35999 ft | 483 kts | 306° |
| 2026-04-24 15:33 | 41.41217 | 31.83813 | 36000 ft | 481 kts | 306° |
| 2026-04-24 15:34 | 41.51102 | 31.65813 | 36002 ft | 481 kts | 306° |
| 2026-04-24 15:35 | 41.60938 | 31.47799 | 36002 ft | 481 kts | 306° |
| 2026-04-24 15:36 | 41.64870 | 31.40566 | 36002 ft | 481 kts | 306° |
| 2026-04-24 15:36 | 41.70764 | 31.29694 | 36000 ft | 481 kts | 306° |
| 2026-04-24 15:37 | 41.74692 | 31.22427 | 35996 ft | 481 kts | 306° |
| 2026-04-24 15:37 | 41.78601 | 31.15177 | 36002 ft | 481 kts | 306° |
| 2026-04-24 15:38 | 41.82517 | 31.07897 | 36000 ft | 481 kts | 306° |
| 2026-04-24 15:38 | 41.86398 | 31.00664 | 36002 ft | 481 kts | 306° |
| 2026-04-24 15:39 | 41.90300 | 30.93376 | 35999 ft | 481 kts | 305° |
| 2026-04-24 15:39 | 41.94200 | 30.86073 | 35996 ft | 481 kts | 305° |
| 2026-04-24 15:40 | 41.98095 | 30.78763 | 35998 ft | 481 kts | 305° |
| 2026-04-24 15:40 | 42.01991 | 30.71443 | 36002 ft | 481 kts | 305° |
| 2026-04-24 15:41 | 42.05878 | 30.64123 | 36000 ft | 481 kts | 305° |
| 2026-04-24 15:41 | 42.09743 | 30.56831 | 36005 ft | 480 kts | 305° |
| 2026-04-24 15:42 | 42.13586 | 30.49559 | 36001 ft | 469 kts | 305° |
| 2026-04-24 15:42 | 42.17360 | 30.42402 | 36000 ft | 469 kts | 305° |
| 2026-04-24 15:43 | 42.21144 | 30.35208 | 35998 ft | 469 kts | 305° |
| 2026-04-24 15:43 | 42.24918 | 30.28016 | 36001 ft | 469 kts | 305° |
| 2026-04-24 15:44 | 42.28665 | 30.20861 | 36000 ft | 469 kts | 305° |
| 2026-04-24 15:44 | 42.32424 | 30.13663 | 36002 ft | 469 kts | 305° |
| 2026-04-24 15:45 | 42.36191 | 30.06434 | 36000 ft | 469 kts | 305° |
| 2026-04-24 15:45 | 42.39948 | 29.99207 | 36002 ft | 469 kts | 305° |
| 2026-04-24 15:46 | 42.43704 | 29.91964 | 36000 ft | 469 kts | 305° |
| 2026-04-24 15:46 | 42.47470 | 29.84735 | 35998 ft | 469 kts | 305° |
| 2026-04-24 15:47 | 42.51467 | 29.77749 | 35999 ft | 469 kts | 309° |
| 2026-04-24 15:47 | 42.55544 | 29.70904 | 36000 ft | 469 kts | 308° |
| 2026-04-24 15:48 | 42.59605 | 29.63957 | 36001 ft | 469 kts | 308° |
| 2026-04-24 15:48 | 42.63645 | 29.56985 | 35996 ft | 469 kts | 308° |
| 2026-04-24 15:49 | 42.67677 | 29.50005 | 36003 ft | 469 kts | 308° |
| 2026-04-24 15:49 | 42.71704 | 29.43017 | 36001 ft | 470 kts | 308° |
| 2026-04-24 15:50 | 42.75735 | 29.36010 | 36000 ft | 470 kts | 308° |
| 2026-04-24 15:50 | 42.79729 | 29.29048 | 36001 ft | 470 kts | 308° |
| 2026-04-24 15:51 | 42.83745 | 29.22032 | 36000 ft | 470 kts | 308° |
| 2026-04-24 15:51 | 42.87761 | 29.15001 | 36001 ft | 470 kts | 308° |
| 2026-04-24 15:52 | 42.91771 | 29.07962 | 36000 ft | 470 kts | 307° |
| 2026-04-24 15:52 | 42.95775 | 29.00917 | 35996 ft | 469 kts | 307° |
| 2026-04-24 15:53 | 42.99777 | 28.93859 | 36002 ft | 469 kts | 307° |
| 2026-04-24 15:53 | 43.03772 | 28.86796 | 35995 ft | 469 kts | 307° |
| 2026-04-24 15:54 | 43.07740 | 28.79765 | 36002 ft | 469 kts | 307° |
| 2026-04-24 15:54 | 43.11725 | 28.72685 | 36002 ft | 469 kts | 307° |
| 2026-04-24 15:55 | 43.15706 | 28.65597 | 36002 ft | 469 kts | 307° |
| 2026-04-24 15:55 | 43.19013 | 28.59695 | 36000 ft | 469 kts | 307° |
| 2026-04-24 15:56 | 43.22992 | 28.52580 | 36000 ft | 469 kts | 307° |
| 2026-04-24 15:56 | 43.26966 | 28.45456 | 36001 ft | 469 kts | 307° |
| 2026-04-24 15:57 | 43.30905 | 28.38378 | 35999 ft | 469 kts | 307° |
| 2026-04-24 15:57 | 43.34866 | 28.31242 | 36000 ft | 469 kts | 307° |
| 2026-04-24 15:58 | 43.38828 | 28.24088 | 36002 ft | 469 kts | 307° |
| 2026-04-24 15:58 | 43.42777 | 28.16938 | 35993 ft | 470 kts | 307° |
| 2026-04-24 15:59 | 43.46737 | 28.09752 | 35990 ft | 470 kts | 307° |
| 2026-04-24 15:59 | 43.50682 | 28.02575 | 35991 ft | 470 kts | 307° |
| 2026-04-24 16:00 | 43.54633 | 27.95371 | 35997 ft | 471 kts | 307° |
| 2026-04-24 16:00 | 43.58573 | 27.88171 | 35997 ft | 471 kts | 307° |
| 2026-04-24 16:01 | 43.62544 | 27.80966 | 35999 ft | 471 kts | 308° |
| 2026-04-24 16:01 | 43.66693 | 27.73964 | 35999 ft | 471 kts | 309° |
| 2026-04-24 16:02 | 43.70826 | 27.67014 | 36001 ft | 471 kts | 309° |
| 2026-04-24 16:02 | 43.74960 | 27.59989 | 35998 ft | 471 kts | 309° |
| 2026-04-24 16:03 | 43.79081 | 27.52945 | 36002 ft | 471 kts | 309° |
| 2026-04-24 16:03 | 43.83197 | 27.45889 | 36000 ft | 471 kts | 309° |
| 2026-04-24 16:04 | 43.87318 | 27.38808 | 36002 ft | 471 kts | 308° |
| 2026-04-24 16:04 | 43.91424 | 27.31734 | 36003 ft | 471 kts | 308° |
| 2026-04-24 16:05 | 43.97559 | 27.21135 | 35996 ft | 471 kts | 308° |
| 2026-04-24 16:06 | 44.03701 | 27.10485 | 36004 ft | 471 kts | 308° |
| 2026-04-24 16:07 | 44.09830 | 26.99817 | 36001 ft | 470 kts | 308° |
| 2026-04-24 16:07 | 44.15955 | 26.89118 | 36003 ft | 470 kts | 308° |
| 2026-04-24 16:08 | 44.22033 | 26.78460 | 36003 ft | 470 kts | 308° |
| 2026-04-24 16:09 | 44.28128 | 26.67732 | 36002 ft | 470 kts | 308° |
| 2026-04-24 16:09 | 44.32188 | 26.60566 | 35996 ft | 470 kts | 308° |
| 2026-04-24 16:11 | 44.42304 | 26.42628 | 36001 ft | 470 kts | 308° |
| 2026-04-24 16:11 | 44.46342 | 26.35437 | 36000 ft | 470 kts | 308° |
| 2026-04-24 16:12 | 44.52369 | 26.24670 | 36001 ft | 470 kts | 308° |
| 2026-04-24 16:13 | 44.58415 | 26.13829 | 36001 ft | 470 kts | 308° |
| 2026-04-24 16:14 | 44.66456 | 25.99347 | 35996 ft | 470 kts | 308° |
| 2026-04-24 16:14 | 44.72478 | 25.88452 | 36000 ft | 470 kts | 307° |
| 2026-04-24 16:15 | 44.78483 | 25.77547 | 36000 ft | 470 kts | 307° |
| 2026-04-24 16:16 | 44.84458 | 25.66656 | 35999 ft | 470 kts | 307° |
| 2026-04-24 16:17 | 44.94440 | 25.48367 | 35997 ft | 471 kts | 307° |
| 2026-04-24 16:18 | 45.02426 | 25.33650 | 35984 ft | 471 kts | 307° |
| 2026-04-24 16:19 | 45.08407 | 25.22578 | 35998 ft | 472 kts | 307° |
| 2026-04-24 16:20 | 45.14355 | 25.11525 | 35995 ft | 473 kts | 307° |
| 2026-04-24 16:20 | 45.20323 | 25.00391 | 35999 ft | 473 kts | 307° |
| 2026-04-24 16:21 | 45.26289 | 24.89217 | 35982 ft | 474 kts | 307° |
| 2026-04-24 16:22 | 45.30237 | 24.81798 | 35991 ft | 474 kts | 307° |
| 2026-04-24 16:22 | 45.36198 | 24.70561 | 35984 ft | 475 kts | 307° |
| 2026-04-24 16:23 | 45.40183 | 24.63024 | 36003 ft | 477 kts | 307° |
| 2026-04-24 16:24 | 45.46157 | 24.51686 | 36000 ft | 480 kts | 307° |
| 2026-04-24 16:24 | 45.50156 | 24.44072 | 36002 ft | 480 kts | 307° |
| 2026-04-24 16:25 | 45.54131 | 24.36483 | 36000 ft | 475 kts | 306° |
| 2026-04-24 16:25 | 45.58103 | 24.28884 | 36002 ft | 476 kts | 306° |
| 2026-04-24 16:26 | 45.63840 | 24.17440 | 35999 ft | 477 kts | 301° |
| 2026-04-24 16:27 | 45.68510 | 24.04909 | 35998 ft | 475 kts | 297° |
| 2026-04-24 16:27 | 45.71606 | 23.96553 | 36001 ft | 475 kts | 297° |
| 2026-04-24 16:28 | 45.74691 | 23.88187 | 36001 ft | 476 kts | 297° |
| 2026-04-24 16:28 | 45.79307 | 23.75572 | 36000 ft | 475 kts | 297° |
| 2026-04-24 16:29 | 45.82350 | 23.67217 | 36007 ft | 475 kts | 297° |
| 2026-04-24 16:30 | 45.88435 | 23.50431 | 36001 ft | 472 kts | 297° |
| 2026-04-24 16:30 | 45.91459 | 23.42052 | 36000 ft | 472 kts | 297° |
| 2026-04-24 16:31 | 45.94465 | 23.33694 | 36000 ft | 470 kts | 297° |
| 2026-04-24 16:31 | 45.97472 | 23.25311 | 35998 ft | 473 kts | 297° |
| 2026-04-24 16:32 | 46.00485 | 23.16881 | 36004 ft | 473 kts | 297° |
| 2026-04-24 16:32 | 46.03489 | 23.08452 | 36009 ft | 473 kts | 297° |
| 2026-04-24 16:33 | 46.06466 | 23.00070 | 36008 ft | 473 kts | 297° |
| 2026-04-24 16:33 | 46.09464 | 22.91605 | 36003 ft | 474 kts | 297° |
| 2026-04-24 16:34 | 46.12459 | 22.83119 | 36013 ft | 473 kts | 297° |
| 2026-04-24 16:34 | 46.15423 | 22.74697 | 36015 ft | 473 kts | 296° |
| 2026-04-24 16:35 | 46.18391 | 22.66234 | 36011 ft | 472 kts | 296° |
| 2026-04-24 16:35 | 46.21351 | 22.57768 | 36010 ft | 472 kts | 296° |
| 2026-04-24 16:36 | 46.24309 | 22.49281 | 35993 ft | 473 kts | 296° |
| 2026-04-24 16:36 | 46.27259 | 22.40791 | 36002 ft | 472 kts | 296° |
| 2026-04-24 16:37 | 46.30198 | 22.32305 | 36011 ft | 472 kts | 296° |
| 2026-04-24 16:37 | 46.33130 | 22.23809 | 36011 ft | 471 kts | 296° |
| 2026-04-24 16:38 | 46.36052 | 22.15317 | 36005 ft | 471 kts | 296° |
| 2026-04-24 16:38 | 46.38972 | 22.06802 | 36005 ft | 471 kts | 296° |
| 2026-04-24 16:39 | 46.41865 | 21.98341 | 36005 ft | 471 kts | 296° |
| 2026-04-24 16:39 | 46.44767 | 21.89825 | 36003 ft | 471 kts | 296° |
| 2026-04-24 16:40 | 46.47171 | 21.82751 | 36004 ft | 470 kts | 296° |
| 2026-04-24 16:40 | 46.50058 | 21.74228 | 36004 ft | 470 kts | 296° |
| 2026-04-24 16:41 | 46.52934 | 21.65708 | 36005 ft | 470 kts | 296° |
| 2026-04-24 16:41 | 46.55808 | 21.57169 | 36002 ft | 470 kts | 296° |
| 2026-04-24 16:42 | 46.58674 | 21.48626 | 36003 ft | 470 kts | 296° |
| 2026-04-24 16:42 | 46.61536 | 21.40066 | 36001 ft | 470 kts | 296° |
| 2026-04-24 16:43 | 46.64386 | 21.31513 | 35999 ft | 470 kts | 296° |
| 2026-04-24 16:43 | 46.67234 | 21.22938 | 36002 ft | 470 kts | 295° |
| 2026-04-24 16:44 | 46.70053 | 21.14423 | 36001 ft | 470 kts | 295° |
| 2026-04-24 16:44 | 46.72889 | 21.05829 | 36001 ft | 470 kts | 295° |
| 2026-04-24 16:45 | 46.75712 | 20.97244 | 35999 ft | 470 kts | 295° |
| 2026-04-24 16:45 | 46.78531 | 20.88644 | 36001 ft | 470 kts | 295° |
| 2026-04-24 16:46 | 46.81345 | 20.80032 | 35999 ft | 470 kts | 295° |
| 2026-04-24 16:46 | 46.84148 | 20.71423 | 35998 ft | 470 kts | 295° |
| 2026-04-24 16:47 | 46.86950 | 20.62788 | 35999 ft | 470 kts | 295° |
| 2026-04-24 16:47 | 46.89747 | 20.54139 | 36001 ft | 470 kts | 295° |
| 2026-04-24 16:48 | 46.92515 | 20.45553 | 36003 ft | 470 kts | 295° |
| 2026-04-24 16:48 | 46.95295 | 20.36899 | 35997 ft | 470 kts | 295° |
| 2026-04-24 16:49 | 46.98071 | 20.28227 | 35855 ft | 471 kts | 295° |
| 2026-04-24 16:49 | 46.99461 | 20.23875 | 35440 ft | 470 kts | 295° |
| 2026-04-24 16:49 | 47.00845 | 20.19530 | 35039 ft | 469 kts | 295° |
| 2026-04-24 16:50 | 47.01760 | 20.16657 | 34893 ft | 469 kts | 295° |
| 2026-04-24 16:50 | 47.03589 | 20.10903 | 34945 ft | 471 kts | 295° |
| 2026-04-24 16:50 | 47.04974 | 20.06538 | 35059 ft | 472 kts | 295° |
| 2026-04-24 16:50 | 47.06357 | 20.02169 | 35188 ft | 472 kts | 295° |
| 2026-04-24 16:51 | 47.07739 | 19.97797 | 35316 ft | 471 kts | 295° |
| 2026-04-24 16:51 | 47.09118 | 19.93427 | 35439 ft | 471 kts | 295° |
| 2026-04-24 16:51 | 47.10493 | 19.89062 | 35570 ft | 471 kts | 295° |
| 2026-04-24 16:51 | 47.11868 | 19.84690 | 35688 ft | 471 kts | 294° |
| 2026-04-24 16:52 | 47.13236 | 19.80332 | 35812 ft | 471 kts | 294° |
| 2026-04-24 16:52 | 47.14605 | 19.75964 | 35937 ft | 470 kts | 294° |
| 2026-04-24 16:52 | 47.17319 | 19.67280 | 36003 ft | 470 kts | 294° |
| 2026-04-24 16:53 | 47.20040 | 19.58546 | 36003 ft | 470 kts | 294° |
| 2026-04-24 16:53 | 47.22755 | 19.49797 | 36000 ft | 470 kts | 294° |
| 2026-04-24 16:54 | 47.25466 | 19.41036 | 35997 ft | 470 kts | 294° |
| 2026-04-24 16:54 | 47.28168 | 19.32271 | 35996 ft | 470 kts | 294° |
| 2026-04-24 16:55 | 47.30867 | 19.23504 | 36001 ft | 470 kts | 294° |
| 2026-04-24 16:55 | 47.33486 | 19.14685 | 35999 ft | 470 kts | 290° |
| 2026-04-24 16:56 | 47.35366 | 19.05538 | 36000 ft | 469 kts | 283° |
| 2026-04-24 16:56 | 47.36951 | 18.96173 | 35999 ft | 469 kts | 284° |
| 2026-04-24 16:57 | 47.38563 | 18.86836 | 36000 ft | 470 kts | 284° |
| 2026-04-24 16:57 | 47.40158 | 18.77482 | 35996 ft | 470 kts | 284° |
| 2026-04-24 16:58 | 47.41739 | 18.68121 | 35997 ft | 470 kts | 284° |
| 2026-04-24 16:58 | 47.43304 | 18.58808 | 36003 ft | 470 kts | 284° |
| 2026-04-24 16:59 | 47.44871 | 18.49428 | 36004 ft | 470 kts | 284° |
| 2026-04-24 17:00 | 47.47213 | 18.35315 | 35994 ft | 471 kts | 283° |
| 2026-04-24 17:00 | 47.49522 | 18.21284 | 36004 ft | 467 kts | 283° |
| 2026-04-24 17:01 | 47.51775 | 18.07479 | 36000 ft | 458 kts | 283° |
| 2026-04-24 17:02 | 47.54007 | 17.93696 | 35997 ft | 458 kts | 283° |
| 2026-04-24 17:02 | 47.55477 | 17.84548 | 35997 ft | 458 kts | 283° |
| 2026-04-24 17:03 | 47.57678 | 17.70765 | 35996 ft | 458 kts | 283° |
| 2026-04-24 17:04 | 47.59139 | 17.61550 | 36000 ft | 459 kts | 283° |
| 2026-04-24 17:04 | 47.61303 | 17.47809 | 36004 ft | 458 kts | 283° |
| 2026-04-24 17:05 | 47.62740 | 17.38588 | 36002 ft | 458 kts | 282° |
| 2026-04-24 17:06 | 47.64626 | 17.24688 | 36001 ft | 458 kts | 281° |
| 2026-04-24 17:06 | 47.66498 | 17.10773 | 36002 ft | 458 kts | 281° |
| 2026-04-24 17:07 | 47.67857 | 17.01531 | 35996 ft | 458 kts | 286° |
| 2026-04-24 17:08 | 47.72580 | 16.83935 | 35996 ft | 458 kts | 292° |
| 2026-04-24 17:08 | 47.74971 | 16.75218 | 36003 ft | 458 kts | 292° |
| 2026-04-24 17:09 | 47.79777 | 16.57629 | 35997 ft | 459 kts | 292° |
| 2026-04-24 17:10 | 47.84456 | 16.40385 | 36003 ft | 448 kts | 291° |
| 2026-04-24 17:12 | 47.93705 | 16.05923 | 36005 ft | 449 kts | 291° |